Time;durP1;ratioP1;P1;durP2;ratioP2;P2;SDS_P1;SDS_P2;PMS_P1;PMS_P2;Temp;Humidity;BMP_temperature;BMP_pressure;BME280_temperature;BME280_humidity;BME280_pressure;Samples;Min_cycle;Max_cycle;Signal;HPM_P1;HPM_P2
2024/02/06 00:01:18;;;;;;;2.60;0.83;;;;;;;;;;6352528;28;20030;-77
2024/02/06 00:04:19;;;;;;;1.67;0.93;;;;;;;;;;6350522;28;20028;-78
2024/02/06 00:07:19;;;;;;;1.63;0.83;;;;;;;;;;6353095;27;20484;-78
2024/02/06 00:10:19;;;;;;;1.23;0.90;;;;;;;;;;6352338;28;20043;-78
2024/02/06 00:13:19;;;;;;;1.73;0.97;;;;;;;;;;6347523;27;20050;-78
2024/02/06 00:16:20;;;;;;;0.90;0.70;;;;;;;;;;6352210;28;20031;-78
2024/02/06 00:19:21;;;;;;;1.33;0.75;;;;;;;;;;6343743;28;20023;-78
2024/02/06 00:22:21;;;;;;;0.93;0.70;;;;;;;;;;6350337;28;20105;-78
2024/02/06 00:25:21;;;;;;;2.90;1.07;;;;;;;;;;6351876;28;20037;-78
2024/02/06 00:28:21;;;;;;;4.07;1.10;;;;;;;;;;6325056;28;20114;-78
2024/02/06 00:31:22;;;;;;;1.20;0.70;;;;;;;;;;6313496;28;20039;-79
2024/02/06 00:34:22;;;;;;;2.30;1.10;;;;;;;;;;6331776;28;20016;-78
2024/02/06 00:37:22;;;;;;;1.77;0.83;;;;;;;;;;6332452;28;20482;-78
2024/02/06 00:40:23;;;;;;;3.30;1.27;;;;;;;;;;6333307;28;20137;-83
2024/02/06 00:43:23;;;;;;;1.77;1.03;;;;;;;;;;6353240;27;20056;-84
2024/02/06 00:46:23;;;;;;;2.83;1.27;;;;;;;;;;6351343;28;20384;-83
2024/02/06 00:49:23;;;;;;;2.30;1.37;;;;;;;;;;6348867;28;20055;-84
2024/02/06 00:52:23;;;;;;;3.60;0.73;;;;;;;;;;6350699;28;20119;-84
2024/02/06 00:55:24;;;;;;;2.20;0.83;;;;;;;;;;6360762;27;20398;-84
2024/02/06 00:58:24;;;;;;;1.70;0.87;;;;;;;;;;6351330;28;20051;-84
2024/02/06 01:01:24;;;;;;;1.43;0.83;;;;;;;;;;6351054;28;20094;-84
2024/02/06 01:04:24;;;;;;;1.70;0.80;;;;;;;;;;6317631;28;20802;-84
2024/02/06 01:07:25;;;;;;;0.90;0.60;;;;;;;;;;6325318;28;20239;-84
2024/02/06 01:10:25;;;;;;;1.08;0.60;;;;;;;;;;6346217;28;20035;-84
2024/02/06 01:13:26;;;;;;;1.57;0.70;;;;;;;;;;6350178;28;20059;-85
2024/02/06 01:16:26;;;;;;;1.97;0.57;;;;;;;;;;6349741;28;20556;-84
2024/02/06 01:19:26;;;;;;;1.07;0.57;;;;;;;;;;6337854;28;20582;-84
2024/02/06 01:22:26;;;;;;;1.00;0.53;;;;;;;;;;6347463;28;20423;-83
2024/02/06 01:25:29;;;;;;;1.67;0.63;;;;;;;;;;6350242;28;20015;-84
2024/02/06 01:28:29;;;;;;;2.88;0.55;;;;;;;;;;6350698;28;20022;-84
2024/02/06 01:31:30;;;;;;;1.17;0.63;;;;;;;;;;6349851;28;20023;-83
2024/02/06 01:34:30;;;;;;;1.40;0.50;;;;;;;;;;6331096;28;20032;-84
2024/02/06 01:37:30;;;;;;;1.17;0.60;;;;;;;;;;6330305;28;20020;-84
2024/02/06 01:40:38;;;;;;;4.63;0.60;;;;;;;;;;6349221;28;20516;-84
2024/02/06 01:43:38;;;;;;;1.40;0.40;;;;;;;;;;6350235;28;20020;-84
2024/02/06 01:46:39;;;;;;;1.20;0.50;;;;;;;;;;6333464;28;20064;-84
2024/02/06 01:49:39;;;;;;;1.50;0.52;;;;;;;;;;6331986;28;20055;-78
2024/02/06 01:52:40;;;;;;;1.33;0.57;;;;;;;;;;6348414;28;20024;-78
2024/02/06 01:55:41;;;;;;;1.27;0.40;;;;;;;;;;6348640;28;20034;-78
2024/02/06 01:58:41;;;;;;;1.85;0.60;;;;;;;;;;6349902;28;20499;-78
2024/02/06 02:01:42;;;;;;;2.10;0.63;;;;;;;;;;6349642;28;20020;-78
2024/02/06 02:04:43;;;;;;;1.50;0.40;;;;;;;;;;6344743;27;20077;-79
2024/02/06 02:07:44;;;;;;;3.20;0.67;;;;;;;;;;6323103;28;20036;-79
2024/02/06 02:10:44;;;;;;;;;;;;;;;;;;6338455;27;20453;-78
2024/02/06 02:13:45;;;;;;;0.50;0.38;;;;;;;;;;6329478;28;20400;-78
2024/02/06 02:16:45;;;;;;;1.25;0.50;;;;;;;;;;6306088;28;20441;-79
2024/02/06 02:19:46;;;;;;;1.10;0.50;;;;;;;;;;6334358;28;20028;-78
2024/02/06 02:22:46;;;;;;;0.87;0.50;;;;;;;;;;6314473;28;20542;-79
2024/02/06 02:25:46;;;;;;;2.27;0.57;;;;;;;;;;6324141;28;20056;-78
2024/02/06 02:28:47;;;;;;;2.55;0.70;;;;;;;;;;6322386;28;20056;-78
2024/02/06 02:31:48;;;;;;;1.13;0.43;;;;;;;;;;6323915;28;20490;-79
2024/02/06 02:34:48;;;;;;;2.00;0.47;;;;;;;;;;6321944;28;20366;-79
2024/02/06 02:37:48;;;;;;;1.53;0.73;;;;;;;;;;6322530;28;20024;-78
2024/02/06 02:40:49;;;;;;;0.77;0.53;;;;;;;;;;6323633;28;20024;-78
2024/02/06 02:43:49;;;;;;;1.87;0.60;;;;;;;;;;6322895;28;20024;-78
2024/02/06 02:46:49;;;;;;;0.93;0.60;;;;;;;;;;6321672;28;20036;-78
2024/02/06 02:49:49;;;;;;;1.30;0.47;;;;;;;;;;6304006;28;20016;-78
2024/02/06 02:52:50;;;;;;;1.50;0.50;;;;;;;;;;6313767;28;20028;-78
2024/02/06 02:55:50;;;;;;;0.80;0.50;;;;;;;;;;6295550;28;20011;-78
2024/02/06 02:58:51;;;;;;;0.95;0.50;;;;;;;;;;6306131;28;20480;-78
2024/02/06 03:01:51;;;;;;;0.87;0.50;;;;;;;;;;6327796;28;20114;-78
2024/02/06 03:04:51;;;;;;;1.87;0.57;;;;;;;;;;6322715;28;20066;-78
2024/02/06 03:07:51;;;;;;;2.23;0.50;;;;;;;;;;6324097;28;20036;-84
2024/02/06 03:10:52;;;;;;;0.80;0.40;;;;;;;;;;6325146;28;20032;-85
2024/02/06 03:13:52;;;;;;;0.80;0.50;;;;;;;;;;6324204;28;20135;-84
2024/02/06 03:16:52;;;;;;;1.00;0.60;;;;;;;;;;6323812;28;20023;-85
2024/02/06 03:19:53;;;;;;;1.30;0.50;;;;;;;;;;6322971;28;20016;-84
2024/02/06 03:22:53;;;;;;;1.43;0.50;;;;;;;;;;6324400;28;20047;-83
2024/02/06 03:25:54;;;;;;;1.08;0.35;;;;;;;;;;6325029;28;20024;-84
2024/02/06 03:28:54;;;;;;;2.10;0.60;;;;;;;;;;6323227;28;20030;-83
2024/02/06 03:31:54;;;;;;;0.90;0.50;;;;;;;;;;6322258;28;20012;-85
2024/02/06 03:34:55;;;;;;;1.90;0.50;;;;;;;;;;6319367;28;20115;-85
2024/02/06 03:37:56;;;;;;;0.82;0.50;;;;;;;;;;6321799;28;20032;-84
2024/02/06 03:40:56;;;;;;;1.33;0.50;;;;;;;;;;6318174;28;20384;-84
2024/02/06 03:43:57;;;;;;;0.68;0.55;;;;;;;;;;6341382;28;20541;-84
2024/02/06 03:46:57;;;;;;;2.43;0.67;;;;;;;;;;6313208;28;20036;-84
2024/02/06 03:49:57;;;;;;;1.13;0.53;;;;;;;;;;6313492;28;20012;-85
2024/02/06 03:52:57;;;;;;;0.93;0.47;;;;;;;;;;6320086;28;20461;-85
2024/02/06 03:55:58;;;;;;;1.07;0.50;;;;;;;;;;6323792;28;20028;-84
2024/02/06 03:58:58;;;;;;;0.93;0.50;;;;;;;;;;6334366;28;20024;-84
2024/02/06 04:01:58;;;;;;;1.50;0.50;;;;;;;;;;6322300;28;20046;-84
2024/02/06 04:04:58;;;;;;;1.93;0.70;;;;;;;;;;6304751;28;20095;-84
2024/02/06 04:07:59;;;;;;;1.37;0.57;;;;;;;;;;6303194;28;20075;-85
2024/02/06 04:11:00;;;;;;;2.30;0.50;;;;;;;;;;6321957;28;20020;-85
2024/02/06 04:14:00;;;;;;;1.10;0.50;;;;;;;;;;6329595;28;20522;-84
2024/02/06 04:17:00;;;;;;;1.57;0.40;;;;;;;;;;6346411;28;20031;-84
2024/02/06 04:20:01;;;;;;;1.10;0.40;;;;;;;;;;6343742;28;20035;-78
2024/02/06 04:23:01;;;;;;;0.40;0.30;;;;;;;;;;6345971;28;20020;-79
2024/02/06 04:26:01;;;;;;;1.87;0.60;;;;;;;;;;6346086;28;20437;-78
2024/02/06 04:29:02;;;;;;;1.03;0.40;;;;;;;;;;6372979;28;20360;-78
2024/02/06 04:32:03;;;;;;;1.00;0.40;;;;;;;;;;6367614;28;20094;-78
2024/02/06 04:35:03;;;;;;;0.80;0.50;;;;;;;;;;6344092;28;20598;-79
2024/02/06 04:38:05;;;;;;;1.47;0.53;;;;;;;;;;6340221;27;20085;-78
2024/02/06 04:41:05;;;;;;;0.90;0.50;;;;;;;;;;6349505;27;20024;-79
2024/02/06 04:44:06;;;;;;;0.75;0.45;;;;;;;;;;6351430;28;20015;-77
2024/02/06 04:47:06;;;;;;;1.03;0.40;;;;;;;;;;6327905;28;20040;-78
2024/02/06 04:50:06;;;;;;;0.70;0.50;;;;;;;;;;6346612;28;20034;-78
2024/02/06 04:53:06;;;;;;;0.80;0.53;;;;;;;;;;6352674;27;20038;-79
2024/02/06 04:56:07;;;;;;;0.60;0.40;;;;;;;;;;6352107;28;20023;-79
2024/02/06 04:59:07;;;;;;;0.87;0.53;;;;;;;;;;6354535;27;20392;-78
2024/02/06 05:02:10;;;;;;;0.57;0.40;;;;;;;;;;6335029;28;20035;-78
2024/02/06 05:05:11;;;;;;;1.27;0.50;;;;;;;;;;6325886;28;20016;-78
2024/02/06 05:08:11;;;;;;;1.00;0.30;;;;;;;;;;6328629;27;20036;-78
2024/02/06 05:11:12;;;;;;;1.87;0.60;;;;;;;;;;6349761;28;20107;-76
2024/02/06 05:14:12;;;;;;;2.53;0.70;;;;;;;;;;6332040;28;20048;-79
2024/02/06 05:17:12;;;;;;;1.83;0.50;;;;;;;;;;6317957;28;20024;-80
2024/02/06 05:20:13;;;;;;;1.53;0.63;;;;;;;;;;6306212;28;20016;-79
2024/02/06 05:23:14;;;;;;;0.85;0.50;;;;;;;;;;6299813;28;20052;-79
2024/02/06 05:26:14;;;;;;;1.00;0.50;;;;;;;;;;6317750;28;20111;-79
2024/02/06 05:29:14;;;;;;;0.60;0.30;;;;;;;;;;6325169;28;20031;-81
2024/02/06 05:32:15;;;;;;;1.10;0.43;;;;;;;;;;6328899;28;20027;-80
2024/02/06 05:35:16;;;;;;;1.63;0.47;;;;;;;;;;6338489;28;20089;-80
2024/02/06 05:38:16;;;;;;;0.57;0.50;;;;;;;;;;6302514;28;20040;-81
2024/02/06 05:41:17;;;;;;;0.93;0.40;;;;;;;;;;6308231;28;20020;-82
2024/02/06 05:44:18;;;;;;;0.52;0.32;;;;;;;;;;6325672;28;20023;-81
2024/02/06 05:47:18;;;;;;;2.80;0.90;;;;;;;;;;6325042;28;20036;-81
2024/02/06 05:50:18;;;;;;;2.80;0.93;;;;;;;;;;6321283;28;20024;-81
2024/02/06 05:53:19;;;;;;;1.23;0.80;;;;;;;;;;6320259;28;20017;-81
2024/02/06 05:56:19;;;;;;;0.70;0.60;;;;;;;;;;6314552;28;20036;-81
2024/02/06 05:59:21;;;;;;;1.20;0.80;;;;;;;;;;6315808;28;20024;-81
2024/02/06 06:02:21;;;;;;;0.98;0.57;;;;;;;;;;6325385;28;20094;-80
2024/02/06 06:05:22;;;;;;;0.90;0.60;;;;;;;;;;6320908;28;20038;-80
2024/02/06 06:08:22;;;;;;;0.65;0.50;;;;;;;;;;6318459;28;20087;-81
2024/02/06 06:11:23;;;;;;;1.57;0.40;;;;;;;;;;6324334;28;20385;-80
2024/02/06 06:14:23;;;;;;;1.37;0.73;;;;;;;;;;6322611;28;20048;-81
2024/02/06 06:17:23;;;;;;;1.60;0.60;;;;;;;;;;6336434;28;20358;-81
2024/02/06 06:20:24;;;;;;;2.10;0.50;;;;;;;;;;6312001;28;20062;-81
2024/02/06 06:23:24;;;;;;;0.87;0.47;;;;;;;;;;6324763;28;20015;-81
2024/02/06 06:26:25;;;;;;;1.53;0.47;;;;;;;;;;6321404;28;20071;-81
2024/02/06 06:29:25;;;;;;;3.70;1.10;;;;;;;;;;6326196;28;20480;-81
2024/02/06 06:32:25;;;;;;;1.80;0.90;;;;;;;;;;6310768;28;20714;-81
2024/02/06 06:35:25;;;;;;;0.90;0.50;;;;;;;;;;6316373;28;20051;-81
2024/02/06 06:38:26;;;;;;;1.53;0.60;;;;;;;;;;6308616;28;20033;-79
2024/02/06 06:41:26;;;;;;;0.73;0.50;;;;;;;;;;6309097;28;20036;-79
2024/02/06 06:44:26;;;;;;;1.97;0.37;;;;;;;;;;6323187;28;20035;-79
2024/02/06 06:47:29;;;;;;;1.13;0.63;;;;;;;;;;6340753;28;20026;-79
2024/02/06 06:50:29;;;;;;;0.52;0.50;;;;;;;;;;6324914;28;20460;-79
2024/02/06 06:53:29;;;;;;;1.03;0.43;;;;;;;;;;6324028;28;20031;-79
2024/02/06 06:56:30;;;;;;;1.20;0.40;;;;;;;;;;6325362;28;20016;-79
2024/02/06 06:59:31;;;;;;;0.47;0.47;;;;;;;;;;6323321;28;20028;-77
2024/02/06 07:02:32;;;;;;;0.50;0.40;;;;;;;;;;6322547;28;20078;-79
2024/02/06 07:05:32;;;;;;;2.95;0.50;;;;;;;;;;6320257;28;20114;-80
2024/02/06 07:08:33;;;;;;;1.13;0.40;;;;;;;;;;6323047;28;20016;-79
2024/02/06 07:11:33;;;;;;;0.83;0.50;;;;;;;;;;6323772;28;20024;-80
2024/02/06 07:14:35;;;;;;;0.80;0.50;;;;;;;;;;6307300;28;20079;-79
2024/02/06 07:17:35;;;;;;;1.10;0.50;;;;;;;;;;6322231;28;20020;-79
2024/02/06 07:20:37;;;;;;;2.08;0.60;;;;;;;;;;6307265;28;20052;-79
2024/02/06 07:23:37;;;;;;;1.60;0.50;;;;;;;;;;6307531;28;20375;-79
2024/02/06 07:26:38;;;;;;;0.53;0.40;;;;;;;;;;6322316;28;20020;-79
2024/02/06 07:29:39;;;;;;;0.52;0.30;;;;;;;;;;6303496;28;20028;-79
2024/02/06 07:32:39;;;;;;;0.60;0.40;;;;;;;;;;6323731;28;20023;-79
2024/02/06 07:35:39;;;;;;;0.83;0.47;;;;;;;;;;6316665;28;20047;-79
2024/02/06 07:38:39;;;;;;;1.20;0.80;;;;;;;;;;6322594;28;20020;-79
2024/02/06 07:41:40;;;;;;;1.87;1.03;;;;;;;;;;6320821;28;20021;-79
2024/02/06 07:44:40;;;;;;;1.13;0.80;;;;;;;;;;6311325;28;20028;-79
2024/02/06 07:47:41;;;;;;;1.43;0.77;;;;;;;;;;6322989;28;20027;-82
2024/02/06 07:50:41;;;;;;;0.83;0.50;;;;;;;;;;6320408;28;20028;-81
2024/02/06 07:53:41;;;;;;;0.87;0.60;;;;;;;;;;6321021;28;20020;-81
2024/02/06 07:56:42;;;;;;;0.57;0.40;;;;;;;;;;6321588;28;20392;-85
2024/02/06 07:59:49;;;;;;;1.82;0.44;;;;;;;;;;5856039;28;10002836;-84
2024/02/06 08:02:50;;;;;;;1.07;0.50;;;;;;;;;;6301484;28;20013;-84
2024/02/06 08:05:50;;;;;;;2.35;0.40;;;;;;;;;;6313550;28;20022;-86
2024/02/06 08:08:51;;;;;;;0.83;0.50;;;;;;;;;;6323665;28;20036;-85
2024/02/06 08:11:52;;;;;;;1.37;0.50;;;;;;;;;;6317258;28;20027;-85
2024/02/06 08:14:52;;;;;;;1.20;0.60;;;;;;;;;;6344502;28;20384;-85
2024/02/06 08:17:52;;;;;;;0.60;0.40;;;;;;;;;;6345764;28;20103;-85
2024/02/06 08:20:53;;;;;;;1.10;0.50;;;;;;;;;;6338421;28;20018;-85
2024/02/06 08:23:54;;;;;;;0.70;0.43;;;;;;;;;;6353438;28;20261;-85
2024/02/06 08:26:55;;;;;;;1.33;0.47;;;;;;;;;;6351542;28;20024;-85
2024/02/06 08:29:55;;;;;;;1.37;0.60;;;;;;;;;;6334454;28;20028;-83
2024/02/06 08:32:56;;;;;;;1.30;0.80;;;;;;;;;;6342653;28;20012;-87
2024/02/06 08:35:56;;;;;;;1.27;0.60;;;;;;;;;;6347579;28;20570;-85
2024/02/06 08:38:56;;;;;;;1.63;0.70;;;;;;;;;;6335297;27;20078;-84
2024/02/06 08:41:56;;;;;;;0.43;0.40;;;;;;;;;;6342123;28;20498;-85
2024/02/06 08:44:57;;;;;;;1.47;0.80;;;;;;;;;;6334412;28;20105;-85
2024/02/06 08:47:57;;;;;;;1.83;0.60;;;;;;;;;;6336402;28;20495;-86
2024/02/06 08:50:58;;;;;;;1.63;0.70;;;;;;;;;;6348535;27;20031;-86
2024/02/06 08:53:59;;;;;;;;;;;;;;;;;;6343814;27;20543;-85
2024/02/06 08:56:59;;;;;;;0.73;0.53;;;;;;;;;;6353650;28;19910;-86
2024/02/06 08:59:59;;;;;;;2.70;0.60;;;;;;;;;;6353303;28;20015;-77
2024/02/06 09:02:59;;;;;;;1.30;0.60;;;;;;;;;;6347141;28;20022;-78
2024/02/06 09:06:00;;;;;;;2.23;0.70;;;;;;;;;;6337280;28;20027;-78
2024/02/06 09:09:00;;;;;;;1.23;0.55;;;;;;;;;;6327084;28;20024;-78
2024/02/06 09:12:01;;;;;;;2.10;0.60;;;;;;;;;;6333811;27;20030;-79
2024/02/06 09:15:01;;;;;;;1.92;0.50;;;;;;;;;;6377695;27;20015;-78
2024/02/06 09:18:02;;;;;;;0.80;0.57;;;;;;;;;;6377087;27;20027;-80
2024/02/06 09:21:03;;;;;;;0.73;0.50;;;;;;;;;;6376381;27;20094;-79
2024/02/06 09:24:03;;;;;;;0.33;0.33;;;;;;;;;;6375725;27;20031;-79
2024/02/06 09:27:04;;;;;;;1.93;0.60;;;;;;;;;;6372895;27;20045;-79
2024/02/06 09:30:04;;;;;;;2.17;0.77;;;;;;;;;;6364281;27;20047;-79
2024/02/06 09:33:04;;;;;;;1.53;0.50;;;;;;;;;;6376662;27;20011;-79
2024/02/06 09:36:06;;;;;;;1.03;0.50;;;;;;;;;;6365288;27;20280;-79
2024/02/06 09:39:07;;;;;;;0.63;0.43;;;;;;;;;;6376748;27;20018;-79
2024/02/06 09:42:07;;;;;;;2.72;1.20;;;;;;;;;;6375852;27;20069;-79
2024/02/06 09:45:07;;;;;;;2.23;0.87;;;;;;;;;;6377337;27;20087;-79
2024/02/06 09:48:08;;;;;;;1.05;0.68;;;;;;;;;;6360587;27;20083;-79
2024/02/06 09:51:09;;;;;;;1.43;0.67;;;;;;;;;;6376885;27;20035;-79
2024/02/06 09:54:12;;;;;;;0.90;0.50;;;;;;;;;;6377534;27;20019;-79
2024/02/06 09:57:17;;;;;;;2.00;0.70;;;;;;;;;;6376914;27;20031;-79
2024/02/06 10:00:18;;;;;;;1.55;0.60;;;;;;;;;;6363417;27;20023;-80
2024/02/06 10:03:25;;;;;;;0.88;0.52;;;;;;;;;;6364601;27;20023;-80
2024/02/06 10:06:26;;;;;;;1.17;0.70;;;;;;;;;;6371740;27;20023;-80
2024/02/06 10:09:28;;;;;;;2.78;1.40;;;;;;;;;;6392113;27;20105;-80
2024/02/06 10:12:29;;;;;;;1.85;1.00;;;;;;;;;;6389397;27;20068;-79
2024/02/06 10:15:30;;;;;;;2.80;1.10;;;;;;;;;;6350418;28;20491;-78
2024/02/06 10:18:30;;;;;;;1.25;0.85;;;;;;;;;;6328782;28;20068;-77
2024/02/06 10:21:32;;;;;;;2.13;1.00;;;;;;;;;;6354921;27;20031;-79
2024/02/06 10:24:32;;;;;;;2.00;0.70;;;;;;;;;;6349609;28;20054;-78
2024/02/06 10:27:32;;;;;;;1.00;0.70;;;;;;;;;;6350131;28;20469;-78
2024/02/06 10:30:34;;;;;;;1.47;0.63;;;;;;;;;;6349849;28;20019;-78
2024/02/06 10:33:34;;;;;;;;;;;;;;;;;;6349239;28;20018;-78
2024/02/06 10:36:35;;;;;;;1.58;0.43;;;;;;;;;;6348103;28;19908;-78
2024/02/06 10:39:35;;;;;;;1.52;0.63;;;;;;;;;;6320376;28;20055;-78
2024/02/06 10:42:36;;;;;;;0.80;0.63;;;;;;;;;;6338144;28;20028;-78
2024/02/06 10:45:36;;;;;;;0.93;0.60;;;;;;;;;;6330544;28;20023;-77
2024/02/06 10:48:37;;;;;;;2.25;0.80;;;;;;;;;;6347483;28;20037;-79
2024/02/06 10:51:37;;;;;;;1.40;0.60;;;;;;;;;;6347074;28;20028;-78
2024/02/06 10:54:37;;;;;;;1.47;0.67;;;;;;;;;;6341483;28;20104;-78
2024/02/06 10:57:41;;;;;;;2.70;0.73;;;;;;;;;;6345441;28;20388;-77
2024/02/06 11:00:42;;;;;;;2.05;0.73;;;;;;;;;;6348381;28;20023;-77
2024/02/06 11:03:49;;;;;;;1.55;0.75;;;;;;;;;;6347586;28;20019;-77
2024/02/06 11:06:52;;;;;;;2.00;0.70;;;;;;;;;;6346951;28;20020;-77
2024/02/06 11:09:52;;;;;;;0.95;0.60;;;;;;;;;;6332832;28;20395;-77
2024/02/06 11:13:01;;;;;;;2.00;0.70;;;;;;;;;;6337494;28;20048;-77
2024/02/06 11:16:02;;;;;;;2.85;0.88;;;;;;;;;;6304731;28;20032;-78
2024/02/06 11:19:09;;;;;;;1.33;0.80;;;;;;;;;;6329377;28;20084;-80
2024/02/06 11:22:13;;;;;;;2.38;0.90;;;;;;;;;;6347366;28;20051;-79
2024/02/06 11:25:16;;;;;;;2.88;1.20;;;;;;;;;;6347066;28;20031;-79
2024/02/06 11:28:17;;;;;;;2.67;0.80;;;;;;;;;;6322516;28;20042;-79
2024/02/06 11:31:19;;;;;;;1.07;0.77;;;;;;;;;;6326119;28;20020;-80
2024/02/06 11:34:19;;;;;;;2.05;0.70;;;;;;;;;;6334424;28;20476;-80
2024/02/06 11:37:26;;;;;;;2.27;0.80;;;;;;;;;;6346442;28;20077;-79
2024/02/06 11:40:28;;;;;;;1.73;1.13;;;;;;;;;;6346458;28;20110;-79
2024/02/06 11:43:28;;;;;;;2.03;1.10;;;;;;;;;;6345070;28;20051;-78
2024/02/06 11:46:39;;;;;;;2.53;1.57;;;;;;;;;;6352330;27;20034;-78
2024/02/06 11:49:39;;;;;;;2.88;1.80;;;;;;;;;;6345042;28;20392;-77
2024/02/06 11:52:39;;;;;;;2.13;1.50;;;;;;;;;;6348087;28;20028;-78
2024/02/06 11:55:43;;;;;;;3.10;1.30;;;;;;;;;;6344349;28;20517;-77
2024/02/06 11:58:44;;;;;;;1.48;1.10;;;;;;;;;;6346047;28;20081;-79
2024/02/06 12:01:44;;;;;;;1.88;1.20;;;;;;;;;;6347064;28;20011;-80
2024/02/06 12:04:44;;;;;;;1.33;0.97;;;;;;;;;;6346540;28;20499;-81
2024/02/06 12:07:54;;;;;;;4.20;1.63;;;;;;;;;;6372070;28;20376;-81
2024/02/06 12:11:00;;;;;;;2.00;1.13;;;;;;;;;;6373236;28;20520;-80
2024/02/06 12:14:01;;;;;;;2.38;1.10;;;;;;;;;;6316481;28;20051;-82
2024/02/06 12:17:01;;;;;;;1.65;0.90;;;;;;;;;;6324126;28;20028;-80
2024/02/06 12:20:05;;;;;;;3.00;0.97;;;;;;;;;;6326124;28;20081;-80
2024/02/06 12:23:07;;;;;;;1.30;0.88;;;;;;;;;;6345929;28;20020;-80
2024/02/06 12:26:07;;;;;;;1.95;1.00;;;;;;;;;;6322189;28;20024;-82
2024/02/06 12:29:07;;;;;;;1.23;0.70;;;;;;;;;;6321668;28;20028;-80
2024/02/06 12:32:08;;;;;;;1.80;0.70;;;;;;;;;;6318125;28;20048;-81
2024/02/06 12:35:08;;;;;;;2.53;0.90;;;;;;;;;;6320198;28;20468;-81
2024/02/06 12:38:09;;;;;;;1.55;0.95;;;;;;;;;;6321425;28;20016;-79
2024/02/06 12:41:09;;;;;;;2.37;0.90;;;;;;;;;;6319459;28;20477;-80
2024/02/06 12:44:09;;;;;;;1.33;0.90;;;;;;;;;;6317166;28;20027;-80
2024/02/06 12:47:10;;;;;;;2.07;0.93;;;;;;;;;;6322760;28;20427;-80
2024/02/06 12:50:11;;;;;;;1.67;0.80;;;;;;;;;;6328607;28;20028;-81
2024/02/06 12:53:20;;;;;;;2.28;0.70;;;;;;;;;;6307424;28;20020;-81
2024/02/06 12:56:24;;;;;;;0.80;0.65;;;;;;;;;;6306390;28;20028;-81
2024/02/06 12:59:25;;;;;;;1.33;0.75;;;;;;;;;;6335015;28;20491;-80
2024/02/06 13:02:26;;;;;;;1.35;0.80;;;;;;;;;;6334553;28;20035;-80
2024/02/06 13:05:27;;;;;;;1.05;0.57;;;;;;;;;;6333339;28;20032;-80
2024/02/06 13:08:27;;;;;;;2.22;0.63;;;;;;;;;;6331205;28;20019;-80
2024/02/06 13:11:28;;;;;;;2.00;0.80;;;;;;;;;;6305754;28;20044;-79
2024/02/06 13:14:28;;;;;;;0.90;0.77;;;;;;;;;;6343798;28;20043;-80
2024/02/06 13:17:29;;;;;;;2.13;1.10;;;;;;;;;;6352833;27;20016;-80
2024/02/06 13:20:30;;;;;;;1.95;0.90;;;;;;;;;;6328647;28;20449;-81
2024/02/06 13:23:31;;;;;;;1.35;0.70;;;;;;;;;;6330213;28;20031;-80
2024/02/06 13:26:31;;;;;;;2.37;1.00;;;;;;;;;;6351316;28;20032;-80
2024/02/06 13:29:35;;;;;;;2.83;0.80;;;;;;;;;;6312765;28;20106;-80
2024/02/06 13:32:35;;;;;;;1.50;0.90;;;;;;;;;;6351407;28;20027;-80
2024/02/06 13:35:35;;;;;;;1.37;0.83;;;;;;;;;;6349241;27;20576;-80
2024/02/06 13:38:36;;;;;;;1.23;0.90;;;;;;;;;;6348607;27;20020;-81
2024/02/06 13:41:38;;;;;;;0.90;0.73;;;;;;;;;;6359866;27;20051;-80
2024/02/06 13:44:39;;;;;;;1.83;0.90;;;;;;;;;;6350487;28;20151;-80
2024/02/06 13:47:39;;;;;;;2.35;0.80;;;;;;;;;;6326292;28;20031;-80
2024/02/06 13:50:40;;;;;;;1.70;0.80;;;;;;;;;;6341457;28;20059;-80
2024/02/06 13:53:40;;;;;;;1.00;0.70;;;;;;;;;;6350055;28;20038;-80
2024/02/06 13:56:44;;;;;;;2.23;0.87;;;;;;;;;;6362445;27;20031;-81
2024/02/06 13:59:45;;;;;;;1.02;0.85;;;;;;;;;;6327314;28;20061;-80
2024/02/06 14:02:46;;;;;;;1.45;0.70;;;;;;;;;;6322602;28;20069;-79
2024/02/06 14:05:46;;;;;;;1.75;0.80;;;;;;;;;;6347853;28;20031;-77
2024/02/06 14:08:47;;;;;;;1.20;0.73;;;;;;;;;;6316287;27;20042;-78
2024/02/06 14:11:47;;;;;;;0.70;0.70;;;;;;;;;;6348087;28;20023;-79
2024/02/06 14:14:47;;;;;;;0.77;0.73;;;;;;;;;;6346293;28;20070;-78
2024/02/06 14:17:48;;;;;;;1.30;0.77;;;;;;;;;;6353720;27;20023;-79
2024/02/06 14:20:48;;;;;;;2.43;0.70;;;;;;;;;;6348130;28;20106;-78
2024/02/06 14:23:48;;;;;;;1.70;0.80;;;;;;;;;;6339213;28;20035;-78
2024/02/06 14:26:48;;;;;;;0.63;0.63;;;;;;;;;;6316562;28;20027;-79
2024/02/06 14:29:49;;;;;;;1.47;0.73;;;;;;;;;;6347743;28;20114;-78
2024/02/06 14:32:49;;;;;;;0.60;0.60;;;;;;;;;;6348593;27;20019;-79
2024/02/06 14:35:50;;;;;;;1.30;0.80;;;;;;;;;;6349815;27;21042;-78
2024/02/06 14:38:51;;;;;;;3.23;1.83;;;;;;;;;;6353303;27;20023;-78
2024/02/06 14:41:52;;;;;;;2.92;1.58;;;;;;;;;;6365221;27;20035;-80
2024/02/06 14:44:52;;;;;;;1.73;0.90;;;;;;;;;;6347870;28;20020;-80
2024/02/06 14:47:52;;;;;;;1.23;0.87;;;;;;;;;;6324503;28;20106;-82
2024/02/06 14:50:53;;;;;;;2.73;1.50;;;;;;;;;;6345311;28;20111;-81
2024/02/06 14:53:53;;;;;;;3.20;1.50;;;;;;;;;;6346889;28;20057;-81
2024/02/06 14:56:53;;;;;;;1.50;1.17;;;;;;;;;;6347050;28;20035;-81
2024/02/06 14:59:54;;;;;;;1.47;0.73;;;;;;;;;;6348268;28;20021;-81
2024/02/06 15:02:54;;;;;;;2.93;0.80;;;;;;;;;;6346364;28;20039;-81
2024/02/06 15:05:55;;;;;;;2.08;0.68;;;;;;;;;;6341490;28;20031;-81
2024/02/06 15:08:55;;;;;;;1.00;0.60;;;;;;;;;;6344546;28;20464;-82
2024/02/06 15:11:55;;;;;;;0.63;0.63;;;;;;;;;;6348221;28;20016;-82
2024/02/06 15:14:55;;;;;;;1.60;0.60;;;;;;;;;;6348084;28;20023;-81
2024/02/06 15:17:56;;;;;;;2.10;0.73;;;;;;;;;;6347315;28;20358;-81
2024/02/06 15:20:56;;;;;;;1.17;0.63;;;;;;;;;;6322587;28;20114;-81
2024/02/06 15:23:56;;;;;;;0.67;0.60;;;;;;;;;;6319554;28;20036;-81
2024/02/06 15:27:01;;;;;;;1.80;0.80;;;;;;;;;;6346618;27;20038;-82
2024/02/06 15:30:02;;;;;;;1.05;0.60;;;;;;;;;;6323209;28;20031;-81
2024/02/06 15:33:02;;;;;;;1.67;0.80;;;;;;;;;;6335476;28;20509;-82
2024/02/06 15:36:03;;;;;;;0.50;0.43;;;;;;;;;;6347623;28;20066;-82
2024/02/06 15:39:03;;;;;;;1.07;0.70;;;;;;;;;;6371287;27;20056;-83
2024/02/06 15:42:03;;;;;;;0.50;0.50;;;;;;;;;;6347331;28;20031;-82
2024/02/06 15:45:04;;;;;;;1.00;0.70;;;;;;;;;;6347489;27;20020;-82
2024/02/06 15:48:05;;;;;;;0.93;0.70;;;;;;;;;;6346640;28;20114;-82
2024/02/06 15:51:05;;;;;;;1.75;0.52;;;;;;;;;;6326093;28;20397;-82
2024/02/06 15:54:08;;;;;;;1.40;0.60;;;;;;;;;;6346919;28;20028;-82
2024/02/06 15:57:09;;;;;;;0.95;0.60;;;;;;;;;;6321132;28;20426;-82
2024/02/06 16:00:09;;;;;;;1.13;0.70;;;;;;;;;;6304264;28;20020;-79
2024/02/06 16:03:10;;;;;;;0.38;0.32;;;;;;;;;;6321204;28;20023;-79
2024/02/06 16:06:11;;;;;;;1.63;0.50;;;;;;;;;;6336293;28;20015;-79
2024/02/06 16:09:14;;;;;;;0.50;0.43;;;;;;;;;;6345945;28;20073;-79
2024/02/06 16:12:14;;;;;;;0.55;0.50;;;;;;;;;;6345744;28;20232;-78
2024/02/06 16:15:14;;;;;;;0.60;0.40;;;;;;;;;;6339438;28;20024;-78
2024/02/06 16:18:15;;;;;;;1.30;0.50;;;;;;;;;;6346653;28;20532;-78
2024/02/06 16:21:17;;;;;;;0.60;0.47;;;;;;;;;;6347333;28;20012;-79
2024/02/06 16:24:18;;;;;;;0.70;0.52;;;;;;;;;;6346047;28;20042;-79
2024/02/06 16:27:19;;;;;;;0.40;0.40;;;;;;;;;;6347677;28;20020;-79
2024/02/06 16:30:19;;;;;;;1.00;0.68;;;;;;;;;;6346926;28;20531;-79
2024/02/06 16:33:19;;;;;;;1.23;0.53;;;;;;;;;;6346498;28;20032;-78
2024/02/06 16:36:20;;;;;;;0.40;0.40;;;;;;;;;;6350354;28;20486;-78
2024/02/06 16:39:20;;;;;;;0.52;0.45;;;;;;;;;;6351440;28;20421;-78
2024/02/06 16:42:21;;;;;;;0.30;0.30;;;;;;;;;;6350768;28;20110;-78
2024/02/06 16:45:21;;;;;;;0.60;0.50;;;;;;;;;;6327177;28;20016;-78
2024/02/06 16:48:22;;;;;;;1.63;0.83;;;;;;;;;;6336409;28;20035;-78
2024/02/06 16:51:22;;;;;;;0.40;0.40;;;;;;;;;;6350267;28;20357;-78
2024/02/06 16:54:23;;;;;;;1.03;0.43;;;;;;;;;;6350811;28;20027;-78
2024/02/06 16:57:23;;;;;;;0.52;0.50;;;;;;;;;;6351946;27;20029;-79
2024/02/06 17:00:23;;;;;;;2.00;1.23;;;;;;;;;;6364350;27;20030;-79
2024/02/06 17:03:23;;;;;;;1.67;0.80;;;;;;;;;;6332139;28;20098;-79
2024/02/06 17:06:24;;;;;;;1.70;0.70;;;;;;;;;;6343202;28;20024;-78
2024/02/06 17:09:24;;;;;;;0.57;0.50;;;;;;;;;;6351436;27;20030;-78
2024/02/06 17:12:27;;;;;;;1.73;0.60;;;;;;;;;;6350051;27;20500;-79
2024/02/06 17:15:27;;;;;;;1.90;0.50;;;;;;;;;;6342694;28;20096;-79
2024/02/06 17:18:29;;;;;;;1.17;0.63;;;;;;;;;;6349858;28;20380;-79
2024/02/06 17:21:30;;;;;;;2.15;0.40;;;;;;;;;;6349735;28;20047;-78
2024/02/06 17:24:30;;;;;;;0.95;0.40;;;;;;;;;;6347551;28;20024;-79
2024/02/06 17:27:30;;;;;;;0.87;0.40;;;;;;;;;;6341123;28;20027;-78
2024/02/06 17:30:31;;;;;;;0.40;0.40;;;;;;;;;;6350762;28;20064;-78
2024/02/06 17:33:31;;;;;;;0.40;0.40;;;;;;;;;;6350159;28;20046;-79
2024/02/06 17:36:35;;;;;;;0.40;0.40;;;;;;;;;;6350024;28;20365;-79
2024/02/06 17:39:38;;;;;;;1.15;0.50;;;;;;;;;;6348141;28;20020;-79
2024/02/06 17:42:39;;;;;;;1.40;0.40;;;;;;;;;;6332254;28;20054;-79
2024/02/06 17:45:39;;;;;;;0.97;0.47;;;;;;;;;;6347762;28;20426;-79
2024/02/06 17:48:39;;;;;;;0.80;0.60;;;;;;;;;;6350033;27;20039;-80
2024/02/06 17:51:40;;;;;;;0.77;0.37;;;;;;;;;;6354843;27;20027;-78
2024/02/06 17:54:40;;;;;;;1.52;0.60;;;;;;;;;;6369802;27;20016;-77
2024/02/06 17:57:41;;;;;;;0.50;0.50;;;;;;;;;;6350293;27;20039;-76
2024/02/06 18:00:41;;;;;;;0.50;0.40;;;;;;;;;;6349187;28;20019;-79
2024/02/06 18:03:42;;;;;;;1.38;0.55;;;;;;;;;;6348993;27;20118;-79